createdAt,value
2017-12-08T00:00:17.785Z,5.20
2017-12-08T00:02:45.287Z,5.00
2017-12-08T00:05:12.796Z,4.77
2017-12-08T00:07:40.328Z,5.30
2017-12-08T00:10:07.827Z,4.97
2017-12-08T00:12:35.386Z,5.33
2017-12-08T00:15:02.897Z,4.63
2017-12-08T00:17:30.412Z,6.03
2017-12-08T00:19:57.949Z,4.90
2017-12-08T00:22:25.495Z,5.37
2017-12-08T00:24:53.038Z,5.47
2017-12-08T00:27:20.562Z,6.70
2017-12-08T00:29:48.120Z,5.23
2017-12-08T00:32:15.630Z,4.77
2017-12-08T00:34:43.135Z,6.40
2017-12-08T00:37:10.692Z,5.60
2017-12-08T00:39:38.213Z,5.20
2017-12-08T00:42:05.721Z,5.17
2017-12-08T00:44:33.282Z,6.20
2017-12-08T00:47:00.788Z,6.40
2017-12-08T00:49:28.305Z,5.80
2017-12-08T00:51:55.857Z,4.93
2017-12-08T00:54:23.369Z,5.67
2017-12-08T00:56:50.890Z,5.53
2017-12-08T00:59:18.449Z,5.70
2017-12-08T01:01:45.964Z,5.77
2017-12-08T01:04:13.476Z,5.67
2017-12-08T01:06:42.092Z,5.53
2017-12-08T01:09:09.597Z,8.60
2017-12-08T01:11:37.128Z,3.60
2017-12-08T01:14:04.640Z,4.60
2017-12-08T01:16:32.192Z,4.80
2017-12-08T01:18:59.695Z,5.20
2017-12-08T01:21:27.201Z,3.87
2017-12-08T01:23:54.766Z,4.90
2017-12-08T01:26:22.277Z,5.10
2017-12-08T01:28:49.789Z,3.57
2017-12-08T01:31:17.345Z,4.63
2017-12-08T01:33:44.853Z,5.00
2017-12-08T01:36:12.361Z,3.90
2017-12-08T01:38:39.920Z,4.50
2017-12-08T01:41:07.419Z,6.67
2017-12-08T01:43:34.953Z,4.37
2017-12-08T01:46:02.535Z,4.43
2017-12-08T01:48:30.049Z,4.67
2017-12-08T01:50:57.560Z,4.67
2017-12-08T01:53:25.116Z,4.53
2017-12-08T01:55:52.620Z,5.27
2017-12-08T01:58:20.133Z,3.80
2017-12-08T02:00:47.666Z,4.33
2017-12-08T02:03:15.224Z,3.50
2017-12-08T02:05:42.724Z,4.47
2017-12-08T02:08:10.227Z,3.83
2017-12-08T02:10:37.792Z,4.23
2017-12-08T02:13:05.312Z,4.17
2017-12-08T02:15:32.829Z,4.43
2017-12-08T02:18:00.390Z,4.50
2017-12-08T02:20:27.895Z,4.67
2017-12-08T02:22:55.414Z,3.73
2017-12-08T02:25:23.009Z,3.23
2017-12-08T02:27:50.517Z,3.73
2017-12-08T02:30:18.080Z,4.10
2017-12-08T02:32:45.656Z,4.50
2017-12-08T02:35:13.194Z,3.30
2017-12-08T02:37:40.713Z,3.17
2017-12-08T02:40:08.244Z,3.90
2017-12-08T02:42:35.743Z,3.90
2017-12-08T02:45:03.289Z,4.00
2017-12-08T02:47:30.794Z,3.33
2017-12-08T02:49:58.323Z,2.90
2017-12-08T02:52:25.890Z,3.07
2017-12-08T02:54:53.422Z,3.77
2017-12-08T02:57:20.937Z,2.70
2017-12-08T02:59:48.469Z,3.13
2017-12-08T03:02:16.028Z,3.90
2017-12-08T03:04:43.538Z,2.83
2017-12-08T03:07:11.047Z,2.93
2017-12-08T03:09:38.604Z,2.73
2017-12-08T03:12:06.116Z,3.30
2017-12-08T03:14:33.623Z,4.13
2017-12-08T03:17:01.197Z,2.97
2017-12-08T03:19:28.759Z,3.17
2017-12-08T03:21:56.270Z,2.47
2017-12-08T03:24:23.840Z,2.53
2017-12-08T03:26:51.405Z,2.80
2017-12-08T03:29:18.915Z,2.80
2017-12-08T03:31:46.417Z,2.40
2017-12-08T03:34:13.968Z,2.90
2017-12-08T03:36:41.471Z,2.20
2017-12-08T03:39:08.977Z,2.57
2017-12-08T03:41:36.540Z,2.57
2017-12-08T03:44:04.056Z,1.93
2017-12-08T03:46:31.553Z,2.10
2017-12-08T03:48:59.147Z,2.67
2017-12-08T03:51:26.670Z,3.10
2017-12-08T03:53:54.186Z,2.80
2017-12-08T03:56:21.764Z,2.90
2017-12-08T03:58:49.288Z,3.73
2017-12-08T04:01:16.795Z,3.30
2017-12-08T04:03:44.361Z,3.50
2017-12-08T04:06:11.877Z,3.13
2017-12-08T04:08:39.384Z,3.10
2017-12-08T04:11:06.954Z,2.60
2017-12-08T04:13:34.480Z,2.80
2017-12-08T04:16:01.983Z,2.70
2017-12-08T04:18:29.570Z,2.30
2017-12-08T04:20:57.078Z,1.83
2017-12-08T04:23:24.592Z,1.90
2017-12-08T04:25:52.123Z,1.77
2017-12-08T04:28:19.661Z,1.90
2017-12-08T04:30:47.225Z,1.73
2017-12-08T04:33:14.741Z,1.80
2017-12-08T04:35:42.265Z,1.83
2017-12-08T04:38:09.825Z,2.10
2017-12-08T04:40:37.349Z,1.67
2017-12-08T04:43:04.861Z,2.20
2017-12-08T04:45:32.392Z,2.17
2017-12-08T04:47:59.904Z,2.30
2017-12-08T04:50:27.452Z,1.90
2017-12-08T04:52:54.972Z,3.20
2017-12-08T04:55:22.504Z,2.47
2017-12-08T04:57:50.077Z,3.07
2017-12-08T05:00:17.600Z,4.50
2017-12-08T05:02:45.102Z,2.93
2017-12-08T05:05:12.657Z,2.67
2017-12-08T05:07:40.212Z,2.83
2017-12-08T05:10:07.729Z,2.70
2017-12-08T05:12:37.374Z,2.30
2017-12-08T05:15:04.980Z,3.20
2017-12-08T05:17:32.484Z,2.47
2017-12-08T05:19:59.991Z,2.20
2017-12-08T05:22:30.358Z,2.83
2017-12-08T05:24:57.970Z,3.13
2017-12-08T05:27:25.489Z,3.13
2017-12-08T05:29:53.131Z,3.27
2017-12-08T05:32:20.697Z,3.30
2017-12-08T05:34:48.214Z,4.50
2017-12-08T05:37:15.740Z,4.10
2017-12-08T05:39:43.287Z,3.80
2017-12-08T05:42:10.798Z,3.20
2017-12-08T05:44:38.303Z,3.47
2017-12-08T05:47:05.844Z,4.10
2017-12-08T05:49:33.393Z,4.00
2017-12-08T05:52:00.942Z,4.27
2017-12-08T05:54:28.458Z,2.87
2017-12-08T05:56:56.031Z,3.70
2017-12-08T05:59:23.536Z,3.17
2017-12-08T06:01:51.089Z,4.47
2017-12-08T06:04:18.656Z,4.27
2017-12-08T06:06:46.167Z,3.43
2017-12-08T06:09:13.673Z,3.60
2017-12-08T06:11:41.216Z,3.70
2017-12-08T06:14:08.861Z,3.27
2017-12-08T06:16:36.368Z,3.80
2017-12-08T06:19:03.904Z,4.13
2017-12-08T06:21:31.468Z,4.37
2017-12-08T06:23:58.987Z,4.00
2017-12-08T06:26:26.496Z,3.67
2017-12-08T06:28:54.057Z,3.80
2017-12-08T06:31:21.575Z,3.37
2017-12-08T06:33:49.079Z,4.13
2017-12-08T06:36:16.648Z,3.33
2017-12-08T06:38:44.160Z,3.10
2017-12-08T06:41:11.672Z,3.53
2017-12-08T06:43:39.232Z,2.90
2017-12-08T06:46:06.747Z,2.77
2017-12-08T06:48:34.261Z,2.30
2017-12-08T06:51:01.830Z,2.53
2017-12-08T06:53:29.331Z,3.20
2017-12-08T06:55:56.845Z,4.60
2017-12-08T06:58:24.403Z,3.83
2017-12-08T07:00:51.909Z,4.77
2017-12-08T07:03:19.427Z,3.00
2017-12-08T07:05:46.972Z,3.30
2017-12-08T07:08:14.472Z,3.70
2017-12-08T07:10:42.009Z,4.00
2017-12-08T07:13:09.573Z,3.70
2017-12-08T07:15:37.150Z,3.10
2017-12-08T07:18:04.670Z,4.70
2017-12-08T07:20:32.174Z,3.80
2017-12-08T07:22:59.757Z,2.43
2017-12-08T07:25:27.285Z,3.50
2017-12-08T07:27:54.789Z,2.20
2017-12-08T07:30:22.353Z,3.47
2017-12-08T07:32:49.874Z,3.10
2017-12-08T07:35:17.380Z,3.73
2017-12-08T07:37:44.947Z,3.57
2017-12-08T07:40:12.588Z,2.87
2017-12-08T07:42:40.121Z,3.43
2017-12-08T07:45:07.700Z,3.33
2017-12-08T07:47:35.223Z,2.37
2017-12-08T07:50:02.741Z,3.57
2017-12-08T07:52:30.297Z,3.47
2017-12-08T07:54:57.813Z,2.60
2017-12-08T07:57:25.336Z,2.10
2017-12-08T07:59:52.900Z,2.80
2017-12-08T08:02:20.412Z,2.50
2017-12-08T08:04:47.908Z,1.53
2017-12-08T08:07:15.448Z,2.80
2017-12-08T08:09:42.995Z,1.80
2017-12-08T08:12:10.517Z,2.60
2017-12-08T08:14:38.029Z,2.30
2017-12-08T08:17:05.577Z,1.60
2017-12-08T08:19:33.142Z,2.60
2017-12-08T08:22:00.680Z,2.20
2017-12-08T08:24:28.204Z,2.67
2017-12-08T08:26:55.782Z,1.50
2017-12-08T08:29:23.303Z,2.50
2017-12-08T08:31:50.857Z,2.87
2017-12-08T08:34:18.385Z,2.10
2017-12-08T08:36:45.891Z,2.53
2017-12-08T08:39:13.454Z,3.03
2017-12-08T08:41:41.053Z,5.10
2017-12-08T08:44:08.593Z,3.90
2017-12-08T08:46:36.110Z,4.07
2017-12-08T08:49:03.654Z,2.60
2017-12-08T08:51:31.204Z,3.73
2017-12-08T08:53:58.847Z,3.00
2017-12-08T08:56:26.381Z,3.17
2017-12-08T08:58:53.963Z,4.40
2017-12-08T09:01:21.482Z,4.10
2017-12-08T09:03:48.996Z,5.07
2017-12-08T09:06:16.557Z,4.53
2017-12-08T09:08:44.064Z,5.50
2017-12-08T09:11:11.625Z,4.07
2017-12-08T09:13:39.144Z,4.80
2017-12-08T09:16:06.661Z,4.37
2017-12-08T09:18:34.199Z,5.50
2017-12-08T09:21:01.705Z,4.60
2017-12-08T09:23:29.270Z,4.50
2017-12-08T09:25:56.806Z,5.30
2017-12-08T09:28:24.319Z,4.63
2017-12-08T09:30:51.857Z,4.80
2017-12-08T09:33:19.376Z,4.37
2017-12-08T09:35:46.941Z,4.23
2017-12-08T09:38:14.451Z,4.90
2017-12-08T09:40:41.957Z,3.53
2017-12-08T09:43:09.511Z,3.33
2017-12-08T09:45:37.022Z,3.30
2017-12-08T09:48:04.525Z,3.03
2017-12-08T09:50:32.108Z,3.70
2017-12-08T09:52:59.642Z,3.07
2017-12-08T09:55:27.835Z,3.57
2017-12-08T09:57:55.451Z,2.97
2017-12-08T10:00:22.956Z,4.50
2017-12-08T10:02:50.463Z,3.60
2017-12-08T10:05:18.021Z,3.00
2017-12-08T10:07:45.537Z,2.70
2017-12-08T10:10:13.043Z,3.50
2017-12-08T10:12:40.632Z,4.00
2017-12-08T10:15:08.131Z,2.93
2017-12-08T10:17:35.632Z,3.80
2017-12-08T10:20:03.164Z,3.60
2017-12-08T10:22:30.711Z,3.80
2017-12-08T10:24:58.228Z,4.70
2017-12-08T10:27:25.766Z,3.20
2017-12-08T10:29:53.318Z,4.40
2017-12-08T10:32:20.845Z,4.13
2017-12-08T10:34:48.389Z,4.70
2017-12-08T10:37:15.917Z,4.10
2017-12-08T10:39:43.453Z,4.30
2017-12-08T10:42:10.999Z,4.23
2017-12-08T10:44:38.540Z,3.33
2017-12-08T10:47:06.046Z,3.90
2017-12-08T10:49:33.614Z,5.03
2017-12-08T10:52:01.150Z,3.50
2017-12-08T10:54:28.689Z,4.63
2017-12-08T10:56:56.265Z,5.00
2017-12-08T10:59:23.825Z,4.30
2017-12-08T11:01:51.363Z,4.43
2017-12-08T11:04:18.954Z,4.20
2017-12-08T11:06:46.482Z,5.70
2017-12-08T11:09:13.987Z,4.07
2017-12-08T11:11:41.556Z,6.23
2017-12-08T11:14:09.096Z,5.40
2017-12-08T11:16:36.628Z,5.20
2017-12-08T11:19:04.192Z,5.57
2017-12-08T11:21:31.718Z,4.30
2017-12-08T11:23:59.293Z,5.70
2017-12-08T11:26:26.803Z,3.77
2017-12-08T11:28:54.361Z,6.13
2017-12-08T11:31:21.905Z,6.00
2017-12-08T11:33:49.531Z,5.87
2017-12-08T11:36:17.049Z,5.53
2017-12-08T11:38:44.555Z,8.13
2017-12-08T11:41:12.103Z,7.13
2017-12-08T11:43:39.622Z,6.93
2017-12-08T11:46:07.141Z,5.63
2017-12-08T11:48:34.705Z,7.33
2017-12-08T11:51:02.220Z,5.37
2017-12-08T11:53:29.737Z,5.90
2017-12-08T11:55:57.285Z,6.23
2017-12-08T11:58:24.851Z,5.60
2017-12-08T12:00:52.385Z,5.90
2017-12-08T12:03:19.892Z,5.77
2017-12-08T12:05:47.461Z,5.50
2017-12-08T12:08:14.978Z,4.70
2017-12-08T12:10:42.484Z,4.53
2017-12-08T12:13:10.060Z,4.77
2017-12-08T12:15:37.573Z,4.30
2017-12-08T12:18:05.080Z,3.93
2017-12-08T12:20:32.616Z,4.67
2017-12-08T12:23:00.188Z,3.60
2017-12-08T12:25:27.699Z,3.90
2017-12-08T12:27:55.211Z,3.80
2017-12-08T12:30:22.749Z,2.60
2017-12-08T12:32:50.289Z,3.20
2017-12-08T12:35:17.861Z,1.50
2017-12-08T12:37:45.420Z,1.23
2017-12-08T12:40:12.938Z,0.70
2017-12-08T12:42:40.435Z,0.70
2017-12-08T12:45:07.969Z,0.73
2017-12-08T12:47:35.533Z,0.90
2017-12-08T12:50:03.054Z,1.17
2017-12-08T12:52:30.593Z,0.73
2017-12-08T12:54:58.162Z,0.60
2017-12-08T12:57:25.680Z,1.53
2017-12-08T12:59:53.187Z,1.00
2017-12-08T13:02:20.744Z,0.70
2017-12-08T13:04:48.258Z,0.60
2017-12-08T13:07:15.764Z,0.70
2017-12-08T13:09:43.320Z,0.87
2017-12-08T13:12:10.840Z,0.50
2017-12-08T13:14:38.369Z,0.60
2017-12-08T13:17:05.938Z,0.83
2017-12-08T13:19:33.465Z,1.10
2017-12-08T13:22:00.975Z,0.67
2017-12-08T13:24:28.531Z,0.70
2017-12-08T13:26:56.057Z,1.00
2017-12-08T13:29:23.569Z,0.93
2017-12-08T13:31:51.140Z,0.67
2017-12-08T13:34:18.640Z,0.80
2017-12-08T13:36:46.152Z,1.23
2017-12-08T13:39:13.693Z,1.47
2017-12-08T13:41:41.209Z,1.13
2017-12-08T13:44:08.782Z,0.80
2017-12-08T13:46:36.322Z,0.70
2017-12-08T13:49:03.831Z,0.87
2017-12-08T13:51:31.419Z,0.97
2017-12-08T13:54:10.700Z,1.23
2017-12-08T13:56:52.177Z,1.67
2017-12-08T13:59:19.688Z,1.27
2017-12-08T14:01:47.202Z,1.00
2017-12-08T14:04:14.746Z,0.90
2017-12-08T14:06:42.298Z,1.23
2017-12-08T14:09:09.869Z,1.40
2017-12-08T14:11:37.394Z,1.93
2017-12-08T14:14:05.025Z,1.57
2017-12-08T14:16:32.597Z,2.30
2017-12-08T14:19:00.109Z,1.80
2017-12-08T14:21:27.621Z,1.83
2017-12-08T14:23:55.183Z,1.80
2017-12-08T14:26:22.687Z,1.80
2017-12-08T14:28:50.201Z,3.13
2017-12-08T14:31:17.764Z,2.00
2017-12-08T14:33:45.271Z,1.90
2017-12-08T14:36:12.788Z,1.93
2017-12-08T14:38:40.357Z,2.10
2017-12-08T14:41:07.881Z,2.50
2017-12-08T14:43:35.389Z,2.13
2017-12-08T14:46:02.921Z,2.10
2017-12-08T14:48:30.434Z,3.00
2017-12-08T14:50:58.005Z,1.60
2017-12-08T14:53:26.484Z,1.47
2017-12-08T14:55:54.006Z,1.80
2017-12-08T14:58:21.581Z,0.97
2017-12-08T15:00:49.088Z,1.30
2017-12-08T15:03:16.593Z,1.37
2017-12-08T15:05:44.149Z,1.23
2017-12-08T15:08:11.693Z,1.20
2017-12-08T15:10:39.225Z,1.00
2017-12-08T15:13:06.796Z,1.83
2017-12-08T15:15:34.347Z,1.27
2017-12-08T15:18:01.889Z,0.93
2017-12-08T15:20:29.471Z,1.43
2017-12-08T15:22:56.979Z,1.60
2017-12-08T15:25:24.517Z,2.00
2017-12-08T15:27:52.108Z,1.80
2017-12-08T15:30:19.680Z,1.80
2017-12-08T15:32:47.200Z,1.90
2017-12-08T15:35:14.719Z,1.90
2017-12-08T15:37:42.292Z,2.00
2017-12-08T15:40:09.812Z,2.33
2017-12-08T15:42:37.329Z,1.37
2017-12-08T15:45:04.904Z,1.83
2017-12-08T15:47:32.411Z,2.60
2017-12-08T15:49:59.976Z,2.30
2017-12-08T15:52:27.524Z,3.00
2017-12-08T15:54:55.126Z,1.80
2017-12-08T15:57:22.648Z,3.30
2017-12-08T15:59:50.161Z,2.07
2017-12-08T16:02:17.729Z,3.00
2017-12-08T16:04:45.239Z,1.63
2017-12-08T16:07:12.773Z,1.73
2017-12-08T16:09:40.345Z,1.70
2017-12-08T16:12:07.856Z,2.23
2017-12-08T16:14:35.433Z,3.00
2017-12-08T16:17:02.944Z,2.70
2017-12-08T16:19:30.489Z,1.93
2017-12-08T16:21:58.059Z,1.70
2017-12-08T16:24:25.577Z,2.40
2017-12-08T16:26:53.094Z,3.10
2017-12-08T16:29:20.676Z,5.10
2017-12-08T16:31:48.185Z,4.00
2017-12-08T16:34:15.696Z,2.80
2017-12-08T16:36:43.261Z,2.87
2017-12-08T16:39:11.058Z,3.70
2017-12-08T16:41:38.594Z,3.87
2017-12-08T16:44:06.162Z,5.10
2017-12-08T16:46:33.672Z,4.53
2017-12-08T16:49:01.194Z,4.27
2017-12-08T16:51:28.789Z,4.90
2017-12-08T16:53:56.308Z,4.93
2017-12-08T16:56:23.815Z,6.00
2017-12-08T16:58:51.349Z,4.20
2017-12-08T17:01:18.920Z,6.07
2017-12-08T17:03:46.428Z,6.53
2017-12-08T17:06:13.945Z,5.63
2017-12-08T17:08:41.519Z,6.17
2017-12-08T17:11:09.028Z,5.43
2017-12-08T17:13:36.549Z,6.17
2017-12-08T17:16:04.119Z,6.67
2017-12-08T17:18:31.640Z,5.53
2017-12-08T17:20:59.151Z,6.97
2017-12-08T17:23:26.719Z,5.93
2017-12-08T17:25:54.308Z,4.80
2017-12-08T17:28:21.881Z,5.57
2017-12-08T17:30:49.436Z,4.37
2017-12-08T17:33:16.966Z,4.27
2017-12-08T17:35:44.488Z,3.97
2017-12-08T17:38:12.061Z,3.70
2017-12-08T17:40:39.571Z,4.00
2017-12-08T17:43:07.089Z,3.10
2017-12-08T17:45:34.620Z,2.90
2017-12-08T17:48:02.146Z,2.77
2017-12-08T17:50:29.713Z,2.37
2017-12-08T17:52:57.215Z,3.07
2017-12-08T17:55:24.730Z,3.43
2017-12-08T17:57:52.269Z,1.63
2017-12-08T18:00:19.803Z,3.20
2017-12-08T18:02:47.347Z,1.83
2017-12-08T18:05:14.887Z,2.37
2017-12-08T18:07:42.404Z,2.10
2017-12-08T18:10:09.971Z,4.13
2017-12-08T18:12:37.492Z,4.40
2017-12-08T18:15:05.000Z,5.20
2017-12-08T18:17:32.605Z,5.20
2017-12-08T18:20:00.148Z,6.03
2017-12-08T18:22:27.691Z,5.17
2017-12-08T18:24:55.262Z,6.80
2017-12-08T18:27:22.796Z,4.67
2017-12-08T18:29:50.320Z,3.37
2017-12-08T18:32:17.901Z,4.00
2017-12-08T18:34:45.429Z,3.00
2017-12-08T18:37:12.953Z,4.40
2017-12-08T18:39:40.502Z,2.70
2017-12-08T18:42:08.024Z,3.80
2017-12-08T18:44:35.600Z,3.60
2017-12-08T18:47:03.176Z,3.00
2017-12-08T18:49:30.713Z,5.03
2017-12-08T18:51:58.285Z,3.73
2017-12-08T18:54:25.805Z,2.27
2017-12-08T18:56:53.338Z,3.47
2017-12-08T18:59:21.007Z,1.87
2017-12-08T19:01:48.617Z,1.77
2017-12-08T19:04:16.133Z,2.73
2017-12-08T19:06:43.696Z,2.33
2017-12-08T19:09:11.252Z,2.40
2017-12-08T19:11:38.895Z,2.20
2017-12-08T19:14:06.513Z,1.80
2017-12-08T19:16:34.125Z,2.87
2017-12-08T19:19:01.839Z,2.23
2017-12-08T19:21:29.399Z,2.10
2017-12-08T19:23:56.982Z,2.17
2017-12-08T19:26:24.501Z,2.43
2017-12-08T19:28:52.056Z,3.00
2017-12-08T19:31:19.623Z,2.80
2017-12-08T19:33:47.226Z,3.90
2017-12-08T19:36:14.752Z,2.67
2017-12-08T19:38:42.420Z,2.90
2017-12-08T19:41:09.937Z,3.63
2017-12-08T19:43:37.456Z,3.93
2017-12-08T19:46:05.038Z,3.93
2017-12-08T19:48:32.607Z,4.10
2017-12-08T19:51:00.144Z,4.40
2017-12-08T19:53:27.721Z,4.87
2017-12-08T19:55:55.261Z,6.27
2017-12-08T19:58:22.808Z,5.37
2017-12-08T20:00:50.404Z,5.90
2017-12-08T20:03:17.953Z,5.90
2017-12-08T20:05:45.489Z,6.10
2017-12-08T20:08:13.078Z,6.37
2017-12-08T20:10:40.609Z,6.97
2017-12-08T20:13:08.238Z,6.63
2017-12-08T20:15:35.911Z,4.47
2017-12-08T20:18:05.317Z,5.17
2017-12-08T20:20:32.963Z,10.50
2017-12-08T20:23:00.570Z,9.00
2017-12-08T20:25:28.098Z,8.33
2017-12-08T20:27:55.621Z,6.83
2017-12-08T20:30:23.180Z,12.13
2017-12-08T20:32:51.493Z,10.07
2017-12-08T20:35:19.021Z,5.27
2017-12-08T20:37:46.566Z,5.77
2017-12-08T20:40:14.139Z,8.20
2017-12-08T20:42:43.312Z,6.80
2017-12-08T20:45:10.835Z,4.77
2017-12-08T20:47:38.388Z,4.87
2017-12-08T20:50:05.912Z,5.40
2017-12-08T20:52:33.494Z,5.30
2017-12-08T20:55:01.017Z,7.00
2017-12-08T20:57:28.609Z,5.77
2017-12-08T20:59:56.178Z,5.30
2017-12-08T21:02:23.768Z,4.97
2017-12-08T21:04:51.284Z,5.77
2017-12-08T21:07:18.813Z,5.00
2017-12-08T21:09:46.389Z,4.60
2017-12-08T21:12:13.932Z,4.30
2017-12-08T21:14:41.449Z,3.07
2017-12-08T21:17:09.010Z,4.10
2017-12-08T21:19:36.552Z,3.77
2017-12-08T21:22:04.092Z,4.40
2017-12-08T21:24:31.633Z,3.43
2017-12-08T21:26:59.189Z,3.20
2017-12-08T21:29:26.760Z,3.10
2017-12-08T21:31:54.280Z,4.10
2017-12-08T21:34:21.791Z,3.00
2017-12-08T21:36:49.367Z,2.37
2017-12-08T21:39:16.892Z,2.93
2017-12-08T21:41:45.305Z,3.00
2017-12-08T21:44:12.860Z,2.30
2017-12-08T21:46:40.414Z,3.03
2017-12-08T21:49:07.941Z,2.40
2017-12-08T21:51:35.492Z,2.90
2017-12-08T21:54:03.004Z,3.07
2017-12-08T21:56:30.578Z,2.97
2017-12-08T21:58:58.098Z,2.87
2017-12-08T22:01:25.656Z,2.07
2017-12-08T22:03:53.261Z,1.90
2017-12-08T22:06:20.801Z,2.87
2017-12-08T22:08:48.340Z,2.03
2017-12-08T22:11:15.884Z,2.40
2017-12-08T22:13:43.407Z,2.53
2017-12-08T22:16:10.968Z,2.50
2017-12-08T22:18:38.505Z,2.60
2017-12-08T22:21:06.083Z,2.20
2017-12-08T22:23:33.600Z,2.30
2017-12-08T22:26:01.116Z,1.67
2017-12-08T22:28:28.683Z,2.00
2017-12-08T22:30:56.216Z,2.20
2017-12-08T22:33:23.745Z,1.80
2017-12-08T22:35:51.308Z,1.90
2017-12-08T22:38:18.884Z,3.10
2017-12-08T22:40:46.407Z,2.50
2017-12-08T22:43:13.973Z,2.30
2017-12-08T22:45:41.497Z,2.10
2017-12-08T22:48:09.064Z,2.77
2017-12-08T22:50:36.582Z,3.00
2017-12-08T22:53:04.096Z,3.30
2017-12-08T22:55:31.637Z,2.73
2017-12-08T22:57:59.236Z,3.47
2017-12-08T23:00:28.580Z,2.50
2017-12-08T23:02:56.108Z,1.83
2017-12-08T23:05:23.656Z,2.80
2017-12-08T23:07:51.209Z,2.70
2017-12-08T23:10:18.804Z,2.70
2017-12-08T23:12:46.333Z,2.97
2017-12-08T23:15:13.889Z,3.03
2017-12-08T23:17:41.470Z,2.83
2017-12-08T23:20:08.996Z,4.00
2017-12-08T23:22:36.516Z,3.47
2017-12-08T23:25:04.169Z,4.40
2017-12-08T23:27:31.754Z,3.10
2017-12-08T23:29:59.274Z,2.03
2017-12-08T23:32:26.784Z,3.40
2017-12-08T23:34:54.332Z,3.07
2017-12-08T23:37:21.851Z,4.93
2017-12-08T23:39:49.610Z,3.60
2017-12-08T23:42:17.137Z,3.17
2017-12-08T23:44:44.657Z,4.30
2017-12-08T23:47:12.240Z,4.00
2017-12-08T23:49:39.756Z,1.80
2017-12-08T23:52:07.272Z,2.87
2017-12-08T23:54:34.835Z,3.70
2017-12-08T23:57:02.380Z,1.80
2017-12-08T23:59:29.912Z,3.10
